Time;durP1;ratioP1;P1;durP2;ratioP2;P2;SDS_P1;SDS_P2;PMS_P1;PMS_P2;Temp;Humidity;BMP_temperature;BMP_pressure;BME280_temperature;BME280_humidity;BME280_pressure;Samples;Min_cycle;Max_cycle;Signal;HPM_P1;HPM_P2
2023/04/10 00:00:40;;;;;;;9.85;8.93;;;22.40;70.10;;;;;;6336181;27;90332;-68
2023/04/10 00:03:42;;;;;;;9.95;8.95;;;22.30;70.10;;;;;;6356637;27;89195;-68
2023/04/10 00:06:47;;;;;;;9.30;8.45;;;22.40;70.10;;;;;;6347832;27;89127;-68
2023/04/10 00:09:49;;;;;;;9.75;8.85;;;22.30;70.10;;;;;;6357808;27;89118;-68
2023/04/10 00:12:52;;;;;;;9.45;8.55;;;22.40;70.20;;;;;;6357383;27;89132;-68
2023/04/10 00:15:54;;;;;;;9.40;8.60;;;22.30;70.10;;;;;;6359307;27;89180;-68
2023/04/10 00:18:56;;;;;;;9.20;8.40;;;22.30;70.10;;;;;;6348516;27;89466;-68
2023/04/10 00:22:00;;;;;;;9.63;8.73;;;22.30;70.10;;;;;;6346370;27;87228;-68
2023/04/10 00:25:02;;;;;;;9.38;8.48;;;22.40;70.10;;;;;;6346569;27;88365;-69
2023/04/10 00:28:04;;;;;;;10.50;9.50;;;22.40;70.10;;;;;;6332701;27;89158;-69
2023/04/10 00:31:06;;;;;;;9.38;8.48;;;22.40;70.10;;;;;;6352382;27;89986;-69
2023/04/10 00:34:08;;;;;;;9.35;8.45;;;22.30;70.10;;;;;;6339824;27;89046;-69
2023/04/10 00:37:12;;;;;;;9.48;8.57;;;22.30;70.10;;;;;;6344171;27;89187;-69
2023/04/10 00:40:14;;;;;;;10.20;9.20;;;22.30;70.10;;;;;;6335308;27;89118;-69
2023/04/10 00:43:19;;;;;;;9.93;8.93;;;22.30;70.10;;;;;;6352521;27;89394;-69
2023/04/10 00:46:21;;;;;;;10.43;9.43;;;22.30;70.10;;;;;;6333954;27;89245;-69
2023/04/10 00:49:23;;;;;;;9.90;9.00;;;22.30;70.10;;;;;;6350345;27;88907;-70
2023/04/10 00:52:26;;;;;;;10.10;9.10;;;22.30;70.10;;;;;;6353748;27;87597;-69
2023/04/10 00:55:28;;;;;;;10.60;9.57;;;22.30;70.10;;;;;;6342676;27;89132;-69
2023/04/10 00:58:30;;;;;;;10.75;9.75;;;22.20;70.00;;;;;;6346184;27;89052;-69
2023/04/10 01:01:33;;;;;;;9.77;8.88;;;22.30;70.00;;;;;;6345011;27;89992;-68
2023/04/10 01:04:35;;;;;;;10.23;9.25;;;22.30;70.00;;;;;;6346276;27;89326;-69
2023/04/10 01:07:54;;;;;;;10.60;9.60;;;22.20;70.00;;;;;;6340158;27;89053;-68
2023/04/10 01:11:05;;;;;;;9.93;9.02;;;22.20;70.00;;;;;;6338125;27;88995;-69
2023/04/10 01:14:15;;;;;;;10.90;9.90;;;22.20;70.10;;;;;;6344489;27;89040;-69
2023/04/10 01:17:22;;;;;;;10.75;9.75;;;22.20;70.10;;;;;;6345965;27;89258;-69
2023/04/10 01:20:26;;;;;;;10.93;9.93;;;22.20;70.10;;;;;;6340228;27;89386;-69
2023/04/10 01:24:00;;;;;;;10.50;9.50;;;22.20;70.10;;;;;;6349926;27;88475;-69
2023/04/10 01:27:12;;;;;;;10.15;9.15;;;22.20;70.10;;;;;;6332002;27;89131;-69
2023/04/10 01:30:20;;;;;;;10.43;9.52;;;22.10;70.00;;;;;;6347635;27;89415;-69
2023/04/10 01:33:30;;;;;;;9.77;8.88;;;22.20;70.00;;;;;;6347990;27;90022;-70
2023/04/10 01:36:36;;;;;;;10.73;9.75;;;22.20;70.00;;;;;;6350564;27;88847;-69
2023/04/10 01:39:41;;;;;;;10.40;9.43;;;22.20;70.00;;;;;;6350156;27;88234;-69
2023/04/10 01:42:48;;;;;;;11.35;10.25;;;22.20;70.00;;;;;;6344362;27;87965;-69
2023/04/10 01:45:52;;;;;;;11.27;10.20;;;22.20;70.10;;;;;;6349747;27;89096;-69
2023/04/10 01:48:56;;;;;;;10.52;9.52;;;22.20;70.00;;;;;;6338643;27;89116;-69
2023/04/10 01:52:00;;;;;;;10.25;9.35;;;22.20;70.00;;;;;;6336751;27;89079;-70
2023/04/10 01:55:03;;;;;;;10.55;9.55;;;22.20;70.00;;;;;;6345489;27;88392;-69
2023/04/10 01:58:05;;;;;;;10.80;9.80;;;22.10;70.00;;;;;;6343741;27;88953;-70
2023/04/10 02:01:09;;;;;;;10.68;9.68;;;22.10;70.00;;;;;;6344849;27;89278;-69
2023/04/10 02:04:11;;;;;;;10.85;9.85;;;22.10;70.00;;;;;;6340053;27;90152;-70
2023/04/10 02:07:18;;;;;;;10.43;9.43;;;22.10;70.10;;;;;;6336211;27;89196;-70
2023/04/10 02:10:37;;;;;;;10.90;9.88;;;22.10;70.00;;;;;;6348334;27;89109;-70
2023/04/10 02:13:41;;;;;;;10.73;9.73;;;22.10;69.90;;;;;;6348417;27;89053;-70
2023/04/10 02:16:45;;;;;;;10.65;9.65;;;22.10;69.90;;;;;;6347375;27;89069;-70
2023/04/10 02:19:51;;;;;;;10.90;9.90;;;22.10;69.90;;;;;;6354838;27;87998;-70
2023/04/10 02:22:53;;;;;;;11.02;10.00;;;22.10;69.90;;;;;;6347569;27;89005;-70
2023/04/10 02:25:57;;;;;;;9.85;8.95;;;22.10;70.00;;;;;;6347961;27;88979;-70
2023/04/10 02:28:59;;;;;;;10.30;9.38;;;22.10;70.00;;;;;;6352590;27;89178;-69
2023/04/10 02:32:03;;;;;;;10.25;9.25;;;22.00;70.00;;;;;;6338859;27;89154;-70
2023/04/10 02:35:05;;;;;;;10.40;9.35;;;22.00;70.00;;;;;;6352250;27;89620;-70
2023/04/10 02:38:08;;;;;;;10.32;9.43;;;22.00;70.00;;;;;;6349101;27;89034;-70
2023/04/10 02:41:10;;;;;;;10.48;9.48;;;22.00;70.00;;;;;;6357371;27;87636;-70
2023/04/10 02:44:12;;;;;;;10.35;9.40;;;22.10;70.00;;;;;;6358588;27;89043;-70
2023/04/10 02:47:17;;;;;;;10.25;9.30;;;22.10;69.90;;;;;;6353183;27;89553;-70
2023/04/10 02:50:19;;;;;;;9.77;8.88;;;22.00;69.80;;;;;;6357321;27;89117;-70
2023/04/10 02:53:22;;;;;;;10.07;9.13;;;22.00;69.80;;;;;;6338477;27;89043;-70
2023/04/10 02:56:24;;;;;;;9.88;8.98;;;22.00;69.80;;;;;;6347093;27;88550;-70
2023/04/10 02:59:26;;;;;;;9.70;8.80;;;22.00;69.80;;;;;;6350441;27;89135;-70
2023/04/10 03:02:30;;;;;;;10.13;9.18;;;22.00;69.90;;;;;;6345634;27;89356;-70
2023/04/10 03:05:33;;;;;;;10.13;9.18;;;22.00;69.80;;;;;;6350044;27;90077;-70
2023/04/10 03:08:35;;;;;;;9.55;8.65;;;22.00;69.90;;;;;;6354511;27;88176;-71
2023/04/10 03:11:37;;;;;;;9.93;9.00;;;22.00;69.90;;;;;;6347811;27;90633;-70
2023/04/10 03:14:40;;;;;;;9.73;8.82;;;22.00;69.90;;;;;;6349892;27;88163;-69
2023/04/10 03:17:43;;;;;;;10.18;9.18;;;22.00;69.90;;;;;;6346226;27;89063;-70
2023/04/10 03:20:46;;;;;;;10.38;9.30;;;22.00;69.90;;;;;;6360280;27;89147;-70
2023/04/10 03:23:48;;;;;;;9.73;8.82;;;22.00;69.80;;;;;;6358278;27;87961;-70
2023/04/10 03:26:50;;;;;;;9.02;8.23;;;22.00;70.70;;;;;;6360370;27;88758;-69
2023/04/10 03:29:52;;;;;;;9.77;8.77;;;21.90;69.70;;;;;;6346061;27;89016;-69
2023/04/10 03:32:56;;;;;;;9.40;8.50;;;22.00;69.80;;;;;;6359661;27;87844;-70
2023/04/10 03:35:58;;;;;;;9.18;8.38;;;21.90;69.60;;;;;;6354037;27;89947;-69
2023/04/10 03:39:00;;;;;;;9.82;8.82;;;22.00;69.60;;;;;;6346616;27;89194;-69
2023/04/10 03:42:02;;;;;;;8.82;8.02;;;22.00;69.60;;;;;;6334494;27;88978;-70
2023/04/10 03:45:05;;;;;;;9.35;8.45;;;22.00;69.60;;;;;;6347303;27;89136;-69
2023/04/10 03:48:09;;;;;;;8.77;7.97;;;22.00;69.60;;;;;;6345476;27;89032;-69
2023/04/10 03:51:10;;;;;;;8.52;7.72;;;21.90;69.40;;;;;;6354377;27;89042;-69
2023/04/10 03:54:12;;;;;;;8.80;8.00;;;22.00;69.40;;;;;;6342956;27;89075;-69
2023/04/10 03:57:17;;;;;;;9.70;8.80;;;22.00;69.40;;;;;;6355557;27;88316;-69
2023/04/10 04:00:21;;;;;;;8.75;7.95;;;22.00;69.40;;;;;;6352117;27;88372;-69
2023/04/10 04:03:24;;;;;;;8.20;7.40;;;22.00;69.40;;;;;;6356170;27;89077;-69
2023/04/10 04:06:26;;;;;;;8.63;7.80;;;22.10;69.40;;;;;;6334166;27;90116;-70
2023/04/10 04:09:28;;;;;;;8.48;7.68;;;22.10;69.30;;;;;;6350381;27;87960;-70
2023/04/10 04:12:30;;;;;;;8.48;7.55;;;22.10;69.30;;;;;;6340580;27;88977;-68
2023/04/10 04:15:32;;;;;;;8.30;7.50;;;22.10;69.20;;;;;;6336291;27;93168;-69
2023/04/10 04:18:35;;;;;;;7.50;6.80;;;22.10;69.20;;;;;;6350973;27;89147;-70
2023/04/10 04:21:37;;;;;;;8.20;7.40;;;22.10;69.10;;;;;;6347751;27;89545;-70
2023/04/10 04:24:39;;;;;;;7.82;7.13;;;22.10;69.10;;;;;;6345392;27;89399;-70
2023/04/10 04:27:41;;;;;;;7.70;7.00;;;22.10;69.00;;;;;;6347001;27;87812;-70
2023/04/10 04:30:43;;;;;;;7.93;7.22;;;22.10;68.90;;;;;;6345755;27;89182;-69
2023/04/10 04:33:47;;;;;;;7.88;7.18;;;22.20;69.10;;;;;;6346685;27;89323;-70
2023/04/10 04:36:49;;;;;;;7.47;6.78;;;22.20;68.90;;;;;;6357562;27;90473;-70
2023/04/10 04:39:51;;;;;;;7.25;6.65;;;22.20;68.90;;;;;;6357102;27;89196;-70
2023/04/10 04:42:53;;;;;;;7.10;6.50;;;22.20;68.90;;;;;;6337104;27;89315;-70
2023/04/10 04:45:55;;;;;;;6.70;6.10;;;22.20;68.90;;;;;;6331787;27;89147;-70
2023/04/10 04:48:58;;;;;;;6.85;6.25;;;22.20;68.80;;;;;;6345988;27;89384;-70
2023/04/10 04:52:00;;;;;;;7.20;6.50;;;22.20;68.80;;;;;;6336609;27;89082;-70
2023/04/10 04:55:02;;;;;;;7.95;7.25;;;22.20;68.80;;;;;;6348590;27;89333;-70
2023/04/10 04:58:05;;;;;;;7.07;6.47;;;22.30;68.80;;;;;;6348645;27;88425;-70
2023/04/10 05:01:07;;;;;;;7.38;6.68;;;22.30;68.80;;;;;;6354024;27;89150;-70
2023/04/10 05:04:10;;;;;;;7.55;6.85;;;22.30;68.70;;;;;;6343801;27;89446;-70
2023/04/10 05:07:12;;;;;;;7.00;6.40;;;22.30;68.70;;;;;;6337128;27;90261;-70
2023/04/10 05:10:15;;;;;;;7.10;6.50;;;22.30;68.70;;;;;;6354398;27;89376;-70
2023/04/10 05:13:17;;;;;;;6.93;6.32;;;22.30;68.60;;;;;;6335390;27;88054;-70
2023/04/10 05:16:19;;;;;;;6.90;6.30;;;22.30;68.50;;;;;;6333375;27;89048;-69
2023/04/10 05:19:23;;;;;;;6.80;6.20;;;22.30;68.50;;;;;;6346220;27;89039;-70
2023/04/10 05:22:26;;;;;;;8.07;7.28;;;22.30;68.40;;;;;;6347138;27;89447;-69
2023/04/10 05:25:28;;;;;;;7.70;7.00;;;22.40;68.40;;;;;;6349904;27;88016;-69
2023/04/10 05:28:30;;;;;;;7.40;6.70;;;22.40;68.40;;;;;;6352589;27;88520;-69
2023/04/10 05:31:32;;;;;;;6.78;6.18;;;22.30;68.40;;;;;;6347893;27;89295;-69
2023/04/10 05:34:36;;;;;;;7.13;6.53;;;22.40;68.40;;;;;;6357870;27;89232;-70
2023/04/10 05:37:38;;;;;;;6.88;6.28;;;22.40;68.40;;;;;;6343826;27;90572;-69
2023/04/10 05:40:40;;;;;;;7.57;6.88;;;22.40;68.30;;;;;;6357741;27;89067;-70
2023/04/10 05:43:42;;;;;;;7.32;6.63;;;22.40;68.40;;;;;;6349720;27;88989;-69
2023/04/10 05:46:44;;;;;;;7.85;7.15;;;22.40;68.30;;;;;;6362146;27;89464;-69
2023/04/10 05:49:47;;;;;;;7.47;6.78;;;22.50;68.30;;;;;;6361204;27;89572;-70
2023/04/10 05:52:50;;;;;;;6.72;6.13;;;22.50;68.30;;;;;;6346529;27;89233;-69
2023/04/10 05:55:53;;;;;;;7.00;6.38;;;22.50;68.30;;;;;;6338726;27;89246;-69
2023/04/10 05:58:55;;;;;;;7.32;6.63;;;22.50;68.30;;;;;;6350360;27;87223;-69
2023/04/10 06:01:57;;;;;;;12.55;10.45;;;22.50;68.30;;;;;;6346863;27;89178;-68
2023/04/10 06:05:00;;;;;;;9.88;8.88;;;22.50;68.40;;;;;;6347194;27;89074;-67
2023/04/10 06:08:02;;;;;;;9.23;8.32;;;22.50;68.90;;;;;;6337315;27;90388;-67
2023/04/10 06:11:05;;;;;;;9.45;8.50;;;22.50;69.20;;;;;;6345565;27;89104;-68
2023/04/10 06:14:07;;;;;;;9.77;8.77;;;22.50;69.30;;;;;;6340050;27;89337;-67
2023/04/10 06:17:09;;;;;;;9.63;8.63;;;22.60;69.60;;;;;;6344879;27;88840;-67
2023/04/10 06:20:13;;;;;;;9.60;8.63;;;22.60;69.70;;;;;;6351514;27;88006;-70
2023/04/10 06:23:15;;;;;;;9.43;8.52;;;22.60;69.40;;;;;;6360594;27;89050;-69
2023/04/10 06:26:17;;;;;;;9.20;8.30;;;22.60;69.10;;;;;;6361174;27;89458;-69
2023/04/10 06:29:19;;;;;;;8.82;8.00;;;22.70;69.10;;;;;;6351043;27;88377;-69
2023/04/10 06:32:21;;;;;;;8.70;7.88;;;22.60;68.90;;;;;;6344195;27;89302;-69
2023/04/10 06:35:24;;;;;;;8.90;8.02;;;22.70;68.90;;;;;;6346493;27;89157;-68
2023/04/10 06:38:27;;;;;;;8.10;7.38;;;22.70;68.90;;;;;;6340813;27;90099;-69
2023/04/10 06:41:29;;;;;;;9.05;8.15;;;22.70;68.90;;;;;;6353027;27;89034;-70
2023/04/10 06:44:31;;;;;;;8.75;7.85;;;22.70;69.10;;;;;;6357300;27;89063;-70
2023/04/10 06:47:33;;;;;;;9.02;8.10;;;22.70;69.10;;;;;;6357131;27;89112;-71
2023/04/10 06:50:36;;;;;;;7.75;6.70;;;22.70;68.90;;;;;;6344846;27;89132;-71
2023/04/10 06:53:38;;;;;;;7.93;7.00;;;22.70;66.20;;;;;;6341475;27;89385;-71
2023/04/10 06:56:40;;;;;;;8.73;7.70;;;22.70;66.10;;;;;;6346973;27;89495;-71
2023/04/10 06:59:42;;;;;;;7.93;7.13;;;22.70;66.20;;;;;;6346084;27;88392;-71
2023/04/10 07:02:44;;;;;;;8.63;6.97;;;22.70;66.20;;;;;;6344639;27;89055;-71
2023/04/10 07:05:48;;;;;;;10.18;7.90;;;22.70;66.20;;;;;;6348379;27;88724;-71
2023/04/10 07:08:50;;;;;;;7.60;6.85;;;22.70;66.20;;;;;;6359365;27;89982;-71
2023/04/10 07:11:52;;;;;;;10.73;7.63;;;22.70;66.20;;;;;;6348754;27;89212;-70
2023/04/10 07:14:54;;;;;;;9.10;7.32;;;22.70;66.30;;;;;;6347254;27;89054;-70
2023/04/10 07:17:56;;;;;;;10.82;7.75;;;22.70;66.70;;;;;;6353567;27;89062;-71
2023/04/10 07:21:00;;;;;;;11.15;7.85;;;22.70;67.40;;;;;;6353808;27;89074;-71
2023/04/10 07:24:02;;;;;;;12.85;7.75;;;22.70;68.10;;;;;;6355212;27;89169;-71
2023/04/10 07:27:04;;;;;;;9.00;7.40;;;22.70;68.00;;;;;;6359111;27;88868;-71
2023/04/10 07:30:07;;;;;;;9.60;7.05;;;22.70;68.20;;;;;;6354712;27;88268;-69
2023/04/10 07:33:09;;;;;;;10.25;7.28;;;22.70;68.30;;;;;;6348564;27;89001;-70
2023/04/10 07:36:13;;;;;;;11.02;7.60;;;22.70;68.40;;;;;;6350284;27;89254;-69
2023/04/10 07:39:15;;;;;;;8.82;7.35;;;22.70;68.40;;;;;;6344151;27;90264;-69
2023/04/10 07:42:17;;;;;;;7.85;6.90;;;22.80;68.50;;;;;;6352231;27;89041;-71
2023/04/10 07:45:19;;;;;;;9.02;7.13;;;22.80;68.60;;;;;;6341494;27;89120;-69
2023/04/10 07:48:21;;;;;;;13.98;8.57;;;22.80;68.80;;;;;;6338521;27;88775;-71
2023/04/10 07:51:24;;;;;;;12.88;7.30;;;22.80;73.20;;;;;;6344624;27;89967;-70
2023/04/10 07:54:26;;;;;;;9.05;6.70;;;22.80;77.90;;;;;;6349899;27;89293;-70
2023/04/10 07:57:28;;;;;;;12.32;7.40;;;22.90;75.70;;;;;;6346163;27;88988;-71
2023/04/10 08:00:30;;;;;;;8.13;6.80;;;23.00;75.20;;;;;;6351197;27;88515;-70
2023/04/10 08:03:38;;;;;;;9.68;6.75;;;23.00;73.30;;;;;;6357079;27;89572;-71
2023/04/10 08:06:41;;;;;;;9.35;6.85;;;23.00;72.80;;;;;;6351320;27;89578;-68
2023/04/10 08:09:43;;;;;;;9.60;6.85;;;23.00;71.60;;;;;;6336216;27;89969;-68
2023/04/10 08:12:45;;;;;;;9.02;6.60;;;23.00;70.60;;;;;;6347258;27;89024;-68
2023/04/10 08:15:47;;;;;;;10.05;7.03;;;23.00;70.30;;;;;;6346526;27;89576;-68
2023/04/10 08:18:50;;;;;;;8.43;6.47;;;23.00;70.20;;;;;;6346672;27;89084;-71
2023/04/10 08:21:53;;;;;;;8.18;6.50;;;23.00;70.10;;;;;;6359129;27;88937;-70
2023/04/10 08:24:55;;;;;;;8.02;6.35;;;23.00;71.00;;;;;;6340589;27;88971;-70
2023/04/10 08:27:59;;;;;;;8.05;6.20;;;23.00;70.00;;;;;;6344086;27;88977;-70
2023/04/10 08:31:01;;;;;;;7.28;6.05;;;23.00;70.00;;;;;;6338876;27;88295;-70
2023/04/10 08:34:03;;;;;;;7.95;6.40;;;23.00;69.80;;;;;;6350032;27;89069;-71
2023/04/10 08:37:08;;;;;;;6.82;6.03;;;23.00;69.70;;;;;;6343368;27;89197;-70
2023/04/10 08:40:11;;;;;;;6.85;5.43;;;23.00;69.70;;;;;;6345964;27;90202;-70
2023/04/10 08:43:13;;;;;;;6.68;5.80;;;23.00;69.60;;;;;;6344465;27;88959;-70
2023/04/10 08:46:15;;;;;;;8.27;5.63;;;23.00;69.50;;;;;;6356883;27;89091;-70
2023/04/10 08:49:24;;;;;;;6.60;5.85;;;23.00;69.40;;;;;;6338061;27;89046;-70
2023/04/10 08:52:31;;;;;;;6.10;5.43;;;23.00;69.40;;;;;;6347934;27;89446;-70
2023/04/10 08:55:33;;;;;;;7.60;6.18;;;23.00;69.30;;;;;;6342372;27;88262;-69
2023/04/10 08:58:36;;;;;;;6.97;5.78;;;23.00;69.30;;;;;;6345539;27;87954;-70
2023/04/10 09:01:40;;;;;;;6.97;5.57;;;23.00;69.20;;;;;;6333426;27;88448;-70
2023/04/10 09:04:48;;;;;;;7.97;5.90;;;23.00;69.20;;;;;;6332563;27;89664;-70
2023/04/10 09:07:51;;;;;;;6.13;5.32;;;23.00;69.10;;;;;;6344659;27;88983;-70
2023/04/10 09:10:53;;;;;;;6.47;5.68;;;23.10;69.30;;;;;;6344773;27;90115;-70
2023/04/10 09:13:55;;;;;;;6.28;5.43;;;23.00;69.10;;;;;;6352434;27;89456;-70
2023/04/10 09:17:13;;;;;;;6.25;5.65;;;23.00;69.10;;;;;;6339623;27;89180;-70
2023/04/10 09:20:22;;;;;;;7.55;5.53;;;23.00;69.10;;;;;;6346446;27;89073;-70
2023/04/10 09:23:25;;;;;;;5.65;5.05;;;23.10;69.10;;;;;;6357355;27;88292;-70
2023/04/10 09:26:29;;;;;;;6.40;5.75;;;23.00;69.10;;;;;;6356660;27;89102;-70
2023/04/10 09:29:41;;;;;;;6.68;5.60;;;23.00;69.00;;;;;;6345755;27;88963;-69
2023/04/10 09:32:45;;;;;;;6.15;5.25;;;23.00;69.10;;;;;;6336265;27;87505;-71
2023/04/10 09:35:47;;;;;;;7.25;5.60;;;23.10;69.10;;;;;;6340810;27;89180;-69
2023/04/10 09:38:54;;;;;;;5.97;5.35;;;23.10;69.10;;;;;;6346020;27;88279;-70
2023/04/10 09:41:56;;;;;;;5.88;5.28;;;23.10;69.00;;;;;;6345152;27;90382;-70
2023/04/10 09:45:00;;;;;;;5.95;5.22;;;23.10;69.10;;;;;;6332228;27;88004;-70
2023/04/10 09:48:03;;;;;;;5.60;5.10;;;23.10;69.10;;;;;;6331943;27;88976;-71
2023/04/10 09:51:06;;;;;;;5.65;5.15;;;23.10;69.00;;;;;;6337711;27;89081;-71
2023/04/10 09:54:09;;;;;;;5.75;5.00;;;23.10;70.00;;;;;;6339585;27;88762;-70
2023/04/10 09:57:13;;;;;;;6.47;5.65;;;23.10;69.10;;;;;;6331350;27;89087;-70
2023/04/10 10:00:16;;;;;;;5.97;5.15;;;23.10;69.10;;;;;;6344159;27;89149;-70
2023/04/10 10:03:19;;;;;;;5.80;5.15;;;23.10;69.00;;;;;;6357536;27;88423;-70
2023/04/10 10:06:22;;;;;;;5.38;4.88;;;23.10;69.10;;;;;;6341609;27;90812;-70
2023/04/10 10:09:27;;;;;;;5.63;4.97;;;23.00;68.90;;;;;;6346743;27;89350;-70
2023/04/10 10:12:36;;;;;;;5.85;5.28;;;23.00;68.90;;;;;;6329933;27;90055;-70
2023/04/10 10:15:46;;;;;;;5.47;4.97;;;23.10;69.00;;;;;;6331244;27;89124;-67
2023/04/10 10:18:57;;;;;;;5.60;5.10;;;23.10;68.90;;;;;;6330851;27;89018;-68
2023/04/10 10:22:01;;;;;;;5.25;4.75;;;23.10;69.00;;;;;;6351273;27;89091;-68
2023/04/10 10:25:07;;;;;;;5.65;5.00;;;23.10;69.00;;;;;;6357718;27;89062;-70
2023/04/10 10:28:13;;;;;;;5.22;4.72;;;23.00;68.90;;;;;;6359549;27;89271;-70
2023/04/10 10:31:16;;;;;;;5.45;4.95;;;23.10;69.00;;;;;;6336654;27;89192;-70
2023/04/10 10:34:18;;;;;;;5.47;5.00;;;23.10;69.10;;;;;;6351318;27;88475;-70
2023/04/10 10:37:21;;;;;;;5.78;5.03;;;23.10;69.00;;;;;;6346071;27;89398;-69
2023/04/10 10:40:29;;;;;;;5.43;4.93;;;23.10;69.00;;;;;;6359371;27;89083;-70
2023/04/10 10:43:39;;;;;;;4.57;4.18;;;23.10;68.90;;;;;;6335507;27;88937;-70
2023/04/10 10:46:47;;;;;;;5.40;4.90;;;23.10;68.90;;;;;;6347902;27;89076;-70
2023/04/10 10:49:55;;;;;;;5.05;4.55;;;23.10;68.90;;;;;;6358722;27;88958;-70
2023/04/10 10:52:57;;;;;;;5.25;4.70;;;23.10;68.90;;;;;;6348117;27;89016;-70
2023/04/10 10:56:33;;;;;;;5.00;4.60;;;23.10;68.90;;;;;;6355486;27;89593;-70
2023/04/10 10:59:55;;;;;;;5.45;4.95;;;23.10;68.90;;;;;;6349159;27;90450;-70
2023/04/10 11:03:27;;;;;;;5.00;4.57;;;23.10;68.90;;;;;;6349598;27;89201;-71
2023/04/10 11:06:51;;;;;;;5.18;4.68;;;23.10;68.90;;;;;;6351358;27;88078;-70
2023/04/10 11:09:56;;;;;;;5.18;4.68;;;23.10;68.90;;;;;;6347782;27;87897;-70
2023/04/10 11:13:18;;;;;;;5.03;4.45;;;23.10;68.90;;;;;;6348775;27;89082;-71
2023/04/10 11:16:21;;;;;;;5.10;4.60;;;23.10;68.90;;;;;;6335494;27;89997;-70
2023/04/10 11:19:24;;;;;;;5.20;4.70;;;23.10;68.90;;;;;;6353472;27;87860;-70
2023/04/10 11:22:27;;;;;;;4.68;4.28;;;23.10;68.90;;;;;;6357228;27;87978;-71
2023/04/10 11:25:48;;;;;;;4.70;4.30;;;23.10;68.90;;;;;;6352705;27;87978;-70
2023/04/10 11:28:51;;;;;;;4.65;4.22;;;23.10;68.90;;;;;;6333373;27;89884;-69
2023/04/10 11:31:56;;;;;;;4.65;4.25;;;23.10;68.80;;;;;;6339951;27;89080;-70
2023/04/10 11:34:58;;;;;;;4.63;4.18;;;23.10;69.80;;;;;;6345629;27;89057;-70
2023/04/10 11:38:17;;;;;;;5.28;4.70;;;23.10;68.80;;;;;;6333832;27;88689;-70
2023/04/10 11:41:18;;;;;;;4.82;4.43;;;23.10;68.90;;;;;;6334613;27;89157;-69
2023/04/10 11:44:29;;;;;;;5.00;4.50;;;23.10;68.90;;;;;;6337480;27;88275;-70
2023/04/10 11:47:31;;;;;;;5.22;4.72;;;23.10;68.90;;;;;;6357158;27;90064;-71
2023/04/10 11:50:34;;;;;;;4.75;4.35;;;23.10;68.90;;;;;;6359264;27;89069;-70
2023/04/10 11:53:37;;;;;;;5.30;4.80;;;23.10;68.90;;;;;;6347399;27;89837;-70
2023/04/10 11:56:41;;;;;;;4.65;4.25;;;23.10;68.90;;;;;;6346747;27;89032;-70
2023/04/10 11:59:50;;;;;;;4.78;4.38;;;23.10;68.90;;;;;;6342427;27;89142;-70
2023/04/10 12:02:52;;;;;;;4.82;4.35;;;23.10;68.90;;;;;;6350847;27;89121;-70
2023/04/10 12:05:55;;;;;;;4.93;4.43;;;23.10;68.90;;;;;;6339746;27;89088;-70
2023/04/10 12:08:57;;;;;;;4.90;4.47;;;23.10;68.80;;;;;;6338245;27;88413;-70
2023/04/10 12:12:00;;;;;;;4.90;4.40;;;23.10;68.80;;;;;;6341040;27;89197;-70
2023/04/10 12:15:23;;;;;;;4.80;4.30;;;23.10;68.80;;;;;;6343306;27;89118;-70
2023/04/10 12:18:25;;;;;;;4.65;4.25;;;23.10;68.80;;;;;;6340118;27;88922;-70
2023/04/10 12:21:27;;;;;;;5.47;4.45;;;23.10;68.80;;;;;;6351517;27;89518;-70
2023/04/10 12:24:43;;;;;;;4.88;4.38;;;23.10;68.80;;;;;;6353041;27;89167;-70
2023/04/10 12:27:50;;;;;;;4.53;4.13;;;23.10;68.80;;;;;;6350954;27;89380;-69
2023/04/10 12:30:53;;;;;;;4.40;3.97;;;23.10;68.80;;;;;;6333561;27;90036;-70
2023/04/10 12:33:56;;;;;;;6.07;4.68;;;23.10;68.90;;;;;;6348587;27;89146;-70
2023/04/10 12:36:58;;;;;;;5.63;4.28;;;23.10;69.20;;;;;;6345772;27;89192;-70
2023/04/10 12:40:06;;;;;;;4.70;4.20;;;23.10;69.40;;;;;;6349859;27;88820;-70
2023/04/10 12:43:08;;;;;;;6.82;5.43;;;23.10;69.60;;;;;;6347949;27;89245;-69
2023/04/10 12:46:23;;;;;;;820.03;315.15;;;23.10;71.10;;;;;;6351315;27;89064;-71
2023/04/10 12:49:25;;;;;;;1260.18;880.28;;;23.10;71.00;;;;;;6337704;27;90026;-71
2023/04/10 12:52:27;;;;;;;1936.78;999.90;;;23.20;71.70;;;;;;6344675;27;89136;-71
2023/04/10 12:55:30;;;;;;;954.15;851.10;;;23.30;69.40;;;;;;6338396;27;89091;-69
2023/04/10 12:58:33;;;;;;;689.58;622.67;;;23.30;67.40;;;;;;6336967;27;89020;-69
2023/04/10 13:01:37;;;;;;;389.55;350.65;;;23.40;66.40;;;;;;6346911;27;89053;-69
2023/04/10 13:04:39;;;;;;;193.27;172.95;;;23.50;65.40;;;;;;6339753;27;89213;-69
2023/04/10 13:07:42;;;;;;;142.27;127.03;;;23.50;64.50;;;;;;6340626;27;89269;-68
2023/04/10 13:10:44;;;;;;;114.40;102.05;;;23.50;63.80;;;;;;6337798;27;87535;-68
2023/04/10 13:13:47;;;;;;;98.30;88.18;;;23.40;63.20;;;;;;6346143;27;89026;-69
2023/04/10 13:16:50;;;;;;;86.68;77.35;;;23.40;62.80;;;;;;6337726;27;88600;-70
2023/04/10 13:19:52;;;;;;;73.65;65.75;;;23.30;62.60;;;;;;6340763;27;89277;-70
2023/04/10 13:22:54;;;;;;;105.82;94.88;;;23.30;62.30;;;;;;6343243;27;89137;-70
2023/04/10 13:25:57;;;;;;;63.75;57.03;;;23.20;62.20;;;;;;6347740;27;87970;-70
2023/04/10 13:28:59;;;;;;;68.53;61.33;;;23.20;62.20;;;;;;6346100;27;89080;-69
2023/04/10 13:32:04;;;;;;;57.30;51.42;;;23.10;62.00;;;;;;6337815;27;89838;-70
2023/04/10 13:35:07;;;;;;;52.30;46.58;;;23.10;62.10;;;;;;6348662;27;89161;-71
2023/04/10 13:38:10;;;;;;;44.88;40.13;;;23.10;62.00;;;;;;6335675;27;88993;-68
2023/04/10 13:41:12;;;;;;;42.03;37.67;;;23.10;62.00;;;;;;6340516;27;88513;-69
2023/04/10 13:44:14;;;;;;;39.50;35.30;;;23.00;62.00;;;;;;6344789;27;89444;-69
2023/04/10 13:47:17;;;;;;;36.90;32.95;;;23.00;62.20;;;;;;6346957;27;89103;-68
2023/04/10 13:50:19;;;;;;;29.60;26.60;;;23.00;62.10;;;;;;6340864;27;90037;-71
2023/04/10 13:53:21;;;;;;;27.60;24.77;;;23.00;61.40;;;;;;6341696;27;89150;-71
2023/04/10 13:56:23;;;;;;;24.83;22.23;;;22.90;61.40;;;;;;6338373;27;89052;-69
2023/04/10 13:59:25;;;;;;;25.77;23.20;;;22.90;61.40;;;;;;6339436;27;89176;-70
2023/04/10 14:02:28;;;;;;;25.67;23.00;;;22.90;61.30;;;;;;6347411;27;89507;-70
2023/04/10 14:05:30;;;;;;;23.20;20.80;;;22.80;61.30;;;;;;6350176;27;89133;-70
2023/04/10 14:08:32;;;;;;;20.77;18.67;;;22.80;61.50;;;;;;6349330;27;89085;-70
2023/04/10 14:11:34;;;;;;;17.95;16.17;;;22.80;61.80;;;;;;6347154;27;88745;-70
2023/04/10 14:14:36;;;;;;;18.85;16.95;;;22.80;61.50;;;;;;6345904;27;89035;-70
2023/04/10 14:17:40;;;;;;;18.67;16.88;;;22.80;61.80;;;;;;6340317;27;89394;-71
2023/04/10 14:20:42;;;;;;;17.60;15.90;;;22.80;62.20;;;;;;6340983;27;90563;-70
2023/04/10 14:23:44;;;;;;;18.40;16.58;;;22.80;62.50;;;;;;6347364;27;89099;-67
2023/04/10 14:26:46;;;;;;;18.30;16.38;;;22.80;62.80;;;;;;6343217;27;88628;-68
2023/04/10 14:29:48;;;;;;;17.25;15.57;;;22.80;63.20;;;;;;6335699;27;89063;-66
2023/04/10 14:32:51;;;;;;;17.48;15.65;;;22.80;63.40;;;;;;6351836;27;87891;-69
2023/04/10 14:35:53;;;;;;;17.10;15.32;;;22.80;63.70;;;;;;6347260;27;89241;-68
2023/04/10 14:38:55;;;;;;;17.02;15.32;;;22.80;63.90;;;;;;6346419;27;89311;-68
2023/04/10 14:41:57;;;;;;;16.35;14.75;;;22.80;64.20;;;;;;6345308;27;88444;-67
2023/04/10 14:44:59;;;;;;;16.05;14.45;;;22.80;64.40;;;;;;6340644;27;89263;-68
2023/04/10 14:48:02;;;;;;;16.88;14.82;;;22.80;64.50;;;;;;6347937;27;89622;-68
2023/04/10 14:51:11;;;;;;;15.68;14.13;;;22.80;64.80;;;;;;6338857;27;89958;-68
2023/04/10 14:54:14;;;;;;;14.70;13.25;;;22.80;65.00;;;;;;6335440;27;89313;-68
2023/04/10 14:57:16;;;;;;;14.95;13.45;;;22.80;65.20;;;;;;6344974;27;88905;-70
2023/04/10 15:00:19;;;;;;;15.10;13.60;;;22.80;65.40;;;;;;6335093;27;89457;-69
2023/04/10 15:03:22;;;;;;;14.93;13.38;;;22.80;65.60;;;;;;6341597;27;89299;-69
2023/04/10 15:06:26;;;;;;;14.15;12.85;;;22.80;65.80;;;;;;6340233;27;87402;-68
2023/04/10 15:09:28;;;;;;;14.88;13.38;;;22.80;66.00;;;;;;6346252;27;89067;-69
2023/04/10 15:12:30;;;;;;;14.35;12.80;;;22.80;66.10;;;;;;6339447;27;87240;-69
2023/04/10 15:15:32;;;;;;;14.02;12.65;;;22.80;66.20;;;;;;6344757;27;89067;-67
2023/04/10 15:18:35;;;;;;;13.80;12.50;;;22.80;66.20;;;;;;6346407;27;89043;-68
2023/04/10 15:21:37;;;;;;;13.25;11.95;;;22.80;66.30;;;;;;6342113;27;90410;-68
2023/04/10 15:24:39;;;;;;;14.23;12.80;;;22.80;66.40;;;;;;6351910;27;89199;-68
2023/04/10 15:27:41;;;;;;;14.18;12.80;;;22.90;66.60;;;;;;6343382;27;89220;-71
2023/04/10 15:30:44;;;;;;;13.25;11.95;;;22.90;66.70;;;;;;6340116;27;88129;-70
2023/04/10 15:33:47;;;;;;;14.38;12.18;;;22.90;66.90;;;;;;6347177;27;89341;-67
2023/04/10 15:36:49;;;;;;;13.23;11.93;;;22.90;67.00;;;;;;6347300;27;89037;-67
2023/04/10 15:39:51;;;;;;;12.75;11.55;;;22.80;66.90;;;;;;6350778;27;88003;-68
2023/04/10 15:42:53;;;;;;;12.95;11.55;;;22.80;67.00;;;;;;6348657;27;87318;-68
2023/04/10 15:45:59;;;;;;;12.65;11.45;;;22.90;67.20;;;;;;6345095;27;89058;-68
2023/04/10 15:49:02;;;;;;;12.25;11.05;;;22.90;67.20;;;;;;6357040;27;88669;-69